sensor_id;sensor_type;location;lat;lon;timestamp;temperature;humidity
14737;DHT22;7459;53.590;10.062;2022-11-15T00:00:25;7.50;99.90
14737;DHT22;7459;53.590;10.062;2022-11-15T00:02:54;7.50;99.90
14737;DHT22;7459;53.590;10.062;2022-11-15T00:05:20;7.50;99.90
14737;DHT22;7459;53.590;10.062;2022-11-15T00:07:46;7.40;99.90
14737;DHT22;7459;53.590;10.062;2022-11-15T00:10:12;7.40;99.90
14737;DHT22;7459;53.590;10.062;2022-11-15T00:12:38;7.40;99.90
14737;DHT22;7459;53.590;10.062;2022-11-15T00:15:04;7.40;99.90
14737;DHT22;7459;53.590;10.062;2022-11-15T00:17:30;7.40;99.90
14737;DHT22;7459;53.590;10.062;2022-11-15T00:19:56;7.40;99.90
14737;DHT22;7459;53.590;10.062;2022-11-15T00:22:22;7.40;99.90
14737;DHT22;7459;53.590;10.062;2022-11-15T00:24:47;7.40;99.90
14737;DHT22;7459;53.590;10.062;2022-11-15T00:27:13;7.30;99.90
14737;DHT22;7459;53.590;10.062;2022-11-15T00:29:39;7.30;99.90
14737;DHT22;7459;53.590;10.062;2022-11-15T00:32:11;7.40;99.90
14737;DHT22;7459;53.590;10.062;2022-11-15T00:34:36;7.30;99.90
14737;DHT22;7459;53.590;10.062;2022-11-15T00:37:02;7.30;99.90
14737;DHT22;7459;53.590;10.062;2022-11-15T00:39:28;7.30;99.90
14737;DHT22;7459;53.590;10.062;2022-11-15T00:41:53;7.40;99.90
14737;DHT22;7459;53.590;10.062;2022-11-15T00:44:19;7.30;99.90
14737;DHT22;7459;53.590;10.062;2022-11-15T00:46:45;7.30;99.90
14737;DHT22;7459;53.590;10.062;2022-11-15T00:49:10;7.30;99.90
14737;DHT22;7459;53.590;10.062;2022-11-15T00:51:36;7.30;99.90
14737;DHT22;7459;53.590;10.062;2022-11-15T00:54:02;7.20;99.90
14737;DHT22;7459;53.590;10.062;2022-11-15T00:56:27;7.30;99.90
14737;DHT22;7459;53.590;10.062;2022-11-15T00:58:53;7.30;99.90
14737;DHT22;7459;53.590;10.062;2022-11-15T01:01:19;7.30;99.90
14737;DHT22;7459;53.590;10.062;2022-11-15T01:03:44;7.30;99.90
14737;DHT22;7459;53.590;10.062;2022-11-15T01:06:10;7.30;99.90
14737;DHT22;7459;53.590;10.062;2022-11-15T01:08:38;7.30;99.90
14737;DHT22;7459;53.590;10.062;2022-11-15T01:11:07;7.20;99.90
14737;DHT22;7459;53.590;10.062;2022-11-15T01:13:35;7.20;99.90
14737;DHT22;7459;53.590;10.062;2022-11-15T01:16:08;7.20;99.90
14737;DHT22;7459;53.590;10.062;2022-11-15T01:18:38;7.20;99.90
14737;DHT22;7459;53.590;10.062;2022-11-15T01:21:06;7.20;99.90
14737;DHT22;7459;53.590;10.062;2022-11-15T01:23:33;7.20;99.90
14737;DHT22;7459;53.590;10.062;2022-11-15T01:26:03;7.30;99.90
14737;DHT22;7459;53.590;10.062;2022-11-15T01:28:32;7.30;99.90
14737;DHT22;7459;53.590;10.062;2022-11-15T01:31:04;7.30;99.90
14737;DHT22;7459;53.590;10.062;2022-11-15T01:33:34;7.30;99.90
14737;DHT22;7459;53.590;10.062;2022-11-15T01:36:07;7.30;99.90
14737;DHT22;7459;53.590;10.062;2022-11-15T01:38:35;7.30;99.90
14737;DHT22;7459;53.590;10.062;2022-11-15T01:41:00;7.30;99.90
14737;DHT22;7459;53.590;10.062;2022-11-15T01:43:29;7.30;99.90
14737;DHT22;7459;53.590;10.062;2022-11-15T01:46:09;7.30;99.90
14737;DHT22;7459;53.590;10.062;2022-11-15T01:49:03;7.30;99.90
14737;DHT22;7459;53.590;10.062;2022-11-15T01:51:33;7.30;99.90
14737;DHT22;7459;53.590;10.062;2022-11-15T01:54:03;7.20;99.90
14737;DHT22;7459;53.590;10.062;2022-11-15T01:56:37;7.10;99.90
14737;DHT22;7459;53.590;10.062;2022-11-15T01:59:08;7.10;99.90
14737;DHT22;7459;53.590;10.062;2022-11-15T02:01:35;7.10;99.90
14737;DHT22;7459;53.590;10.062;2022-11-15T02:04:15;7.10;99.90
14737;DHT22;7459;53.590;10.062;2022-11-15T02:06:43;7.10;99.90
14737;DHT22;7459;53.590;10.062;2022-11-15T02:09:10;7.20;99.90
14737;DHT22;7459;53.590;10.062;2022-11-15T02:11:36;7.20;99.90
14737;DHT22;7459;53.590;10.062;2022-11-15T02:14:03;7.20;99.90
14737;DHT22;7459;53.590;10.062;2022-11-15T02:25:01;7.20;99.90
14737;DHT22;7459;53.590;10.062;2022-11-15T02:30:47;7.10;99.90
14737;DHT22;7459;53.590;10.062;2022-11-15T02:33:21;7.10;99.90
14737;DHT22;7459;53.590;10.062;2022-11-15T02:39:02;7.10;99.90
14737;DHT22;7459;53.590;10.062;2022-11-15T02:41:45;7.00;99.90
14737;DHT22;7459;53.590;10.062;2022-11-15T02:44:26;7.00;99.90
14737;DHT22;7459;53.590;10.062;2022-11-15T02:47:12;7.00;99.90
14737;DHT22;7459;53.590;10.062;2022-11-15T02:49:53;7.00;99.90
14737;DHT22;7459;53.590;10.062;2022-11-15T02:52:21;7.00;99.90
14737;DHT22;7459;53.590;10.062;2022-11-15T02:54:59;7.00;99.90
14737;DHT22;7459;53.590;10.062;2022-11-15T02:57:45;6.90;99.90
14737;DHT22;7459;53.590;10.062;2022-11-15T03:00:20;6.90;99.90
14737;DHT22;7459;53.590;10.062;2022-11-15T03:06:20;6.80;99.90
14737;DHT22;7459;53.590;10.062;2022-11-15T03:09:08;6.80;99.90
14737;DHT22;7459;53.590;10.062;2022-11-15T03:11:47;6.80;99.90
14737;DHT22;7459;53.590;10.062;2022-11-15T03:14:32;6.80;99.90
14737;DHT22;7459;53.590;10.062;2022-11-15T03:17:13;6.80;99.90
14737;DHT22;7459;53.590;10.062;2022-11-15T03:20:17;6.80;99.90
14737;DHT22;7459;53.590;10.062;2022-11-15T03:22:45;6.90;99.90
14737;DHT22;7459;53.590;10.062;2022-11-15T03:25:19;6.90;99.90
14737;DHT22;7459;53.590;10.062;2022-11-15T03:27:53;6.90;99.90
14737;DHT22;7459;53.590;10.062;2022-11-15T03:30:21;6.80;99.90
14737;DHT22;7459;53.590;10.062;2022-11-15T03:32:51;6.90;99.90
14737;DHT22;7459;53.590;10.062;2022-11-15T03:35:21;6.90;99.90
14737;DHT22;7459;53.590;10.062;2022-11-15T03:40:30;6.90;99.90
14737;DHT22;7459;53.590;10.062;2022-11-15T03:43:13;6.90;99.90
14737;DHT22;7459;53.590;10.062;2022-11-15T03:46:02;6.90;99.90
14737;DHT22;7459;53.590;10.062;2022-11-15T03:48:40;6.90;99.90
14737;DHT22;7459;53.590;10.062;2022-11-15T03:51:08;6.80;99.90
14737;DHT22;7459;53.590;10.062;2022-11-15T03:53:34;6.90;99.90
14737;DHT22;7459;53.590;10.062;2022-11-15T03:55:59;6.80;99.90
14737;DHT22;7459;53.590;10.062;2022-11-15T03:58:25;6.90;99.90
14737;DHT22;7459;53.590;10.062;2022-11-15T04:00:51;6.90;99.90
14737;DHT22;7459;53.590;10.062;2022-11-15T04:03:17;6.80;99.90
14737;DHT22;7459;53.590;10.062;2022-11-15T04:05:42;6.80;99.90
14737;DHT22;7459;53.590;10.062;2022-11-15T04:08:08;6.80;99.90
14737;DHT22;7459;53.590;10.062;2022-11-15T04:10:34;6.80;99.90
14737;DHT22;7459;53.590;10.062;2022-11-15T04:13:01;6.80;99.90
14737;DHT22;7459;53.590;10.062;2022-11-15T04:15:27;6.80;99.90
14737;DHT22;7459;53.590;10.062;2022-11-15T04:17:56;6.80;99.90
14737;DHT22;7459;53.590;10.062;2022-11-15T04:20:23;6.80;99.90
14737;DHT22;7459;53.590;10.062;2022-11-15T04:23:13;6.80;99.90
14737;DHT22;7459;53.590;10.062;2022-11-15T04:26:00;6.80;99.90
14737;DHT22;7459;53.590;10.062;2022-11-15T04:28:27;6.90;99.90
14737;DHT22;7459;53.590;10.062;2022-11-15T04:30:53;6.90;99.90
14737;DHT22;7459;53.590;10.062;2022-11-15T04:33:19;6.90;99.90
14737;DHT22;7459;53.590;10.062;2022-11-15T04:35:45;6.90;99.90
14737;DHT22;7459;53.590;10.062;2022-11-15T04:38:31;7.00;99.90
14737;DHT22;7459;53.590;10.062;2022-11-15T04:40:56;7.00;99.90
14737;DHT22;7459;53.590;10.062;2022-11-15T04:43:22;7.00;99.90
14737;DHT22;7459;53.590;10.062;2022-11-15T04:45:48;7.00;99.90
14737;DHT22;7459;53.590;10.062;2022-11-15T04:48:13;7.00;99.90
14737;DHT22;7459;53.590;10.062;2022-11-15T04:50:39;7.00;99.90
14737;DHT22;7459;53.590;10.062;2022-11-15T04:53:05;7.00;99.90
14737;DHT22;7459;53.590;10.062;2022-11-15T04:55:31;7.00;99.90
14737;DHT22;7459;53.590;10.062;2022-11-15T04:57:58;7.00;99.90
14737;DHT22;7459;53.590;10.062;2022-11-15T05:00:25;7.00;99.90
14737;DHT22;7459;53.590;10.062;2022-11-15T05:02:51;7.00;99.90
14737;DHT22;7459;53.590;10.062;2022-11-15T05:05:36;7.00;99.90
14737;DHT22;7459;53.590;10.062;2022-11-15T05:08:02;7.10;99.90
14737;DHT22;7459;53.590;10.062;2022-11-15T05:10:28;7.10;99.90
14737;DHT22;7459;53.590;10.062;2022-11-15T05:12:53;7.10;99.90
14737;DHT22;7459;53.590;10.062;2022-11-15T05:15:19;7.10;99.90
14737;DHT22;7459;53.590;10.062;2022-11-15T05:17:45;7.10;99.90
14737;DHT22;7459;53.590;10.062;2022-11-15T05:20:11;7.10;99.90
14737;DHT22;7459;53.590;10.062;2022-11-15T05:22:37;7.20;99.90
14737;DHT22;7459;53.590;10.062;2022-11-15T05:25:04;7.20;99.90
14737;DHT22;7459;53.590;10.062;2022-11-15T05:27:30;7.20;99.90
14737;DHT22;7459;53.590;10.062;2022-11-15T05:29:55;7.20;99.90
14737;DHT22;7459;53.590;10.062;2022-11-15T05:32:21;7.20;99.90
14737;DHT22;7459;53.590;10.062;2022-11-15T05:34:47;7.30;99.90
14737;DHT22;7459;53.590;10.062;2022-11-15T05:37:14;7.30;99.90
14737;DHT22;7459;53.590;10.062;2022-11-15T05:39:39;7.30;99.90
14737;DHT22;7459;53.590;10.062;2022-11-15T05:42:11;7.30;99.90
14737;DHT22;7459;53.590;10.062;2022-11-15T05:44:41;7.30;99.90
14737;DHT22;7459;53.590;10.062;2022-11-15T05:47:20;7.30;99.90
14737;DHT22;7459;53.590;10.062;2022-11-15T05:49:49;7.30;99.90
14737;DHT22;7459;53.590;10.062;2022-11-15T05:52:19;7.30;99.90
14737;DHT22;7459;53.590;10.062;2022-11-15T05:54:47;7.30;99.90
14737;DHT22;7459;53.590;10.062;2022-11-15T05:57:13;7.30;99.90
14737;DHT22;7459;53.590;10.062;2022-11-15T05:59:39;7.30;99.90
14737;DHT22;7459;53.590;10.062;2022-11-15T06:02:06;7.30;99.90
14737;DHT22;7459;53.590;10.062;2022-11-15T06:04:32;7.40;99.90
14737;DHT22;7459;53.590;10.062;2022-11-15T06:07:00;7.40;99.90
14737;DHT22;7459;53.590;10.062;2022-11-15T06:09:26;7.40;99.90
14737;DHT22;7459;53.590;10.062;2022-11-15T06:11:52;7.40;99.90
14737;DHT22;7459;53.590;10.062;2022-11-15T06:14:17;7.40;99.90
14737;DHT22;7459;53.590;10.062;2022-11-15T06:16:43;7.40;99.90
14737;DHT22;7459;53.590;10.062;2022-11-15T06:19:09;7.40;99.90
14737;DHT22;7459;53.590;10.062;2022-11-15T06:21:35;7.40;99.90
14737;DHT22;7459;53.590;10.062;2022-11-15T06:24:01;7.40;99.90
14737;DHT22;7459;53.590;10.062;2022-11-15T06:26:26;7.40;99.90
14737;DHT22;7459;53.590;10.062;2022-11-15T06:28:52;7.40;99.90
14737;DHT22;7459;53.590;10.062;2022-11-15T06:31:18;7.50;99.90
14737;DHT22;7459;53.590;10.062;2022-11-15T06:33:43;7.50;99.90
14737;DHT22;7459;53.590;10.062;2022-11-15T06:36:11;7.40;99.90
14737;DHT22;7459;53.590;10.062;2022-11-15T06:38:42;7.50;99.90
14737;DHT22;7459;53.590;10.062;2022-11-15T06:41:10;7.40;99.90
14737;DHT22;7459;53.590;10.062;2022-11-15T06:43:37;7.40;99.90
14737;DHT22;7459;53.590;10.062;2022-11-15T06:46:04;7.50;99.90
14737;DHT22;7459;53.590;10.062;2022-11-15T06:48:32;7.50;99.90
14737;DHT22;7459;53.590;10.062;2022-11-15T06:51:00;7.50;99.90
14737;DHT22;7459;53.590;10.062;2022-11-15T06:53:27;7.50;99.90
14737;DHT22;7459;53.590;10.062;2022-11-15T06:55:53;7.50;99.90
14737;DHT22;7459;53.590;10.062;2022-11-15T06:58:23;7.50;99.90
14737;DHT22;7459;53.590;10.062;2022-11-15T07:00:49;7.50;99.90
14737;DHT22;7459;53.590;10.062;2022-11-15T07:03:15;7.50;99.90
14737;DHT22;7459;53.590;10.062;2022-11-15T07:05:40;7.50;99.90
14737;DHT22;7459;53.590;10.062;2022-11-15T07:08:06;7.50;99.90
14737;DHT22;7459;53.590;10.062;2022-11-15T07:10:32;7.50;99.90
14737;DHT22;7459;53.590;10.062;2022-11-15T07:12:57;7.50;99.90
14737;DHT22;7459;53.590;10.062;2022-11-15T07:15:25;7.50;99.90
14737;DHT22;7459;53.590;10.062;2022-11-15T07:17:51;7.50;99.90
14737;DHT22;7459;53.590;10.062;2022-11-15T07:20:17;7.50;99.90
14737;DHT22;7459;53.590;10.062;2022-11-15T07:22:44;7.50;99.90
14737;DHT22;7459;53.590;10.062;2022-11-15T07:25:12;7.60;99.90
14737;DHT22;7459;53.590;10.062;2022-11-15T07:27:38;7.60;99.90
14737;DHT22;7459;53.590;10.062;2022-11-15T07:30:04;7.60;99.90
14737;DHT22;7459;53.590;10.062;2022-11-15T07:32:31;7.50;99.90
14737;DHT22;7459;53.590;10.062;2022-11-15T07:34:56;7.60;99.90
14737;DHT22;7459;53.590;10.062;2022-11-15T07:37:22;7.60;99.90
14737;DHT22;7459;53.590;10.062;2022-11-15T07:39:48;7.60;99.90
14737;DHT22;7459;53.590;10.062;2022-11-15T07:42:14;7.60;99.90
14737;DHT22;7459;53.590;10.062;2022-11-15T07:44:58;7.70;99.90
14737;DHT22;7459;53.590;10.062;2022-11-15T07:47:24;7.70;99.90
14737;DHT22;7459;53.590;10.062;2022-11-15T07:49:50;7.70;99.90
14737;DHT22;7459;53.590;10.062;2022-11-15T07:52:15;7.70;99.90
14737;DHT22;7459;53.590;10.062;2022-11-15T07:54:41;7.70;99.90
14737;DHT22;7459;53.590;10.062;2022-11-15T07:57:07;7.80;99.90
14737;DHT22;7459;53.590;10.062;2022-11-15T07:59:34;7.80;99.90
14737;DHT22;7459;53.590;10.062;2022-11-15T08:02:00;7.70;99.90
14737;DHT22;7459;53.590;10.062;2022-11-15T08:04:26;7.70;99.90
14737;DHT22;7459;53.590;10.062;2022-11-15T08:06:51;7.80;99.90
14737;DHT22;7459;53.590;10.062;2022-11-15T08:09:17;7.80;99.90
14737;DHT22;7459;53.590;10.062;2022-11-15T08:11:43;7.80;99.90
14737;DHT22;7459;53.590;10.062;2022-11-15T08:14:08;7.80;99.90
14737;DHT22;7459;53.590;10.062;2022-11-15T08:16:34;7.80;99.90
14737;DHT22;7459;53.590;10.062;2022-11-15T08:19:00;7.80;99.90
14737;DHT22;7459;53.590;10.062;2022-11-15T08:21:25;7.80;99.90
14737;DHT22;7459;53.590;10.062;2022-11-15T08:23:51;7.80;99.90
14737;DHT22;7459;53.590;10.062;2022-11-15T08:26:17;7.80;99.90
14737;DHT22;7459;53.590;10.062;2022-11-15T08:28:43;7.80;99.90
14737;DHT22;7459;53.590;10.062;2022-11-15T08:31:15;7.80;99.90
14737;DHT22;7459;53.590;10.062;2022-11-15T08:33:43;7.80;99.90
14737;DHT22;7459;53.590;10.062;2022-11-15T08:36:13;7.80;99.90
14737;DHT22;7459;53.590;10.062;2022-11-15T08:38:40;7.80;99.90
14737;DHT22;7459;53.590;10.062;2022-11-15T08:41:09;7.80;99.90
14737;DHT22;7459;53.590;10.062;2022-11-15T08:43:36;7.80;99.90
14737;DHT22;7459;53.590;10.062;2022-11-15T08:46:02;7.80;99.90
14737;DHT22;7459;53.590;10.062;2022-11-15T08:48:28;7.90;99.90
14737;DHT22;7459;53.590;10.062;2022-11-15T08:50:55;7.90;99.90
14737;DHT22;7459;53.590;10.062;2022-11-15T08:53:21;7.90;99.90
14737;DHT22;7459;53.590;10.062;2022-11-15T08:55:47;7.90;99.90
14737;DHT22;7459;53.590;10.062;2022-11-15T08:58:13;7.90;99.90
14737;DHT22;7459;53.590;10.062;2022-11-15T09:00:38;7.90;99.90
14737;DHT22;7459;53.590;10.062;2022-11-15T09:03:05;7.80;99.90
14737;DHT22;7459;53.590;10.062;2022-11-15T09:05:32;7.80;99.90
14737;DHT22;7459;53.590;10.062;2022-11-15T09:07:57;7.80;99.90
14737;DHT22;7459;53.590;10.062;2022-11-15T09:10:23;7.80;99.90
14737;DHT22;7459;53.590;10.062;2022-11-15T09:12:50;7.90;99.90
14737;DHT22;7459;53.590;10.062;2022-11-15T09:15:16;7.90;99.90
14737;DHT22;7459;53.590;10.062;2022-11-15T09:17:42;8.00;99.90
14737;DHT22;7459;53.590;10.062;2022-11-15T09:20:08;8.00;99.90
14737;DHT22;7459;53.590;10.062;2022-11-15T09:22:35;8.00;99.90
14737;DHT22;7459;53.590;10.062;2022-11-15T09:25:02;8.00;99.90
14737;DHT22;7459;53.590;10.062;2022-11-15T09:27:29;8.00;99.90
14737;DHT22;7459;53.590;10.062;2022-11-15T09:29:55;8.10;99.90
14737;DHT22;7459;53.590;10.062;2022-11-15T09:32:21;8.10;99.90
14737;DHT22;7459;53.590;10.062;2022-11-15T09:34:50;8.10;99.90
14737;DHT22;7459;53.590;10.062;2022-11-15T09:37:16;8.20;99.90
14737;DHT22;7459;53.590;10.062;2022-11-15T09:39:42;8.20;99.90
14737;DHT22;7459;53.590;10.062;2022-11-15T09:42:30;8.20;99.90
14737;DHT22;7459;53.590;10.062;2022-11-15T09:50:49;8.40;99.90
14737;DHT22;7459;53.590;10.062;2022-11-15T09:53:32;8.30;99.90
14737;DHT22;7459;53.590;10.062;2022-11-15T09:56:14;8.40;99.90
14737;DHT22;7459;53.590;10.062;2022-11-15T09:59:18;8.40;99.90
14737;DHT22;7459;53.590;10.062;2022-11-15T10:04:46;8.40;99.90
14737;DHT22;7459;53.590;10.062;2022-11-15T10:12:42;8.50;99.90
14737;DHT22;7459;53.590;10.062;2022-11-15T10:15:14;8.50;99.90
14737;DHT22;7459;53.590;10.062;2022-11-15T10:20:50;8.50;99.90
14737;DHT22;7459;53.590;10.062;2022-11-15T10:23:21;8.60;99.90
14737;DHT22;7459;53.590;10.062;2022-11-15T10:25:52;8.60;99.90
14737;DHT22;7459;53.590;10.062;2022-11-15T10:28:29;8.60;99.90
14737;DHT22;7459;53.590;10.062;2022-11-15T10:31:00;8.70;99.90
14737;DHT22;7459;53.590;10.062;2022-11-15T10:46:33;8.80;99.90
14737;DHT22;7459;53.590;10.062;2022-11-15T10:49:21;8.90;99.90
14737;DHT22;7459;53.590;10.062;2022-11-15T10:51:53;8.90;99.90
14737;DHT22;7459;53.590;10.062;2022-11-15T10:54:23;8.90;99.90
14737;DHT22;7459;53.590;10.062;2022-11-15T10:56:52;8.90;99.90
14737;DHT22;7459;53.590;10.062;2022-11-15T10:59:31;8.90;99.90
14737;DHT22;7459;53.590;10.062;2022-11-15T11:01:59;9.00;99.90
14737;DHT22;7459;53.590;10.062;2022-11-15T11:04:25;9.00;99.90
14737;DHT22;7459;53.590;10.062;2022-11-15T11:06:57;9.00;99.90
14737;DHT22;7459;53.590;10.062;2022-11-15T11:12:04;9.10;99.90
14737;DHT22;7459;53.590;10.062;2022-11-15T11:14:33;9.10;99.90
14737;DHT22;7459;53.590;10.062;2022-11-15T11:17:09;9.20;99.90
14737;DHT22;7459;53.590;10.062;2022-11-15T11:20:00;9.20;99.90
14737;DHT22;7459;53.590;10.062;2022-11-15T11:25:56;9.30;99.90
14737;DHT22;7459;53.590;10.062;2022-11-15T11:29:10;9.30;99.90
14737;DHT22;7459;53.590;10.062;2022-11-15T11:32:17;9.30;99.90
14737;DHT22;7459;53.590;10.062;2022-11-15T11:35:11;9.30;99.90
14737;DHT22;7459;53.590;10.062;2022-11-15T11:38:02;9.30;99.90
14737;DHT22;7459;53.590;10.062;2022-11-15T11:40:40;9.40;99.90
14737;DHT22;7459;53.590;10.062;2022-11-15T11:46:48;9.40;99.90
14737;DHT22;7459;53.590;10.062;2022-11-15T11:49:52;9.40;99.90
14737;DHT22;7459;53.590;10.062;2022-11-15T11:52:42;9.50;99.90
14737;DHT22;7459;53.590;10.062;2022-11-15T11:55:23;9.50;99.90
14737;DHT22;7459;53.590;10.062;2022-11-15T12:00:51;9.50;99.90
14737;DHT22;7459;53.590;10.062;2022-11-15T12:03:45;9.60;99.90
14737;DHT22;7459;53.590;10.062;2022-11-15T12:06:32;9.60;99.90
14737;DHT22;7459;53.590;10.062;2022-11-15T12:09:24;9.60;99.90
14737;DHT22;7459;53.590;10.062;2022-11-15T12:15:24;9.60;99.90
14737;DHT22;7459;53.590;10.062;2022-11-15T12:17:52;9.60;99.90
14737;DHT22;7459;53.590;10.062;2022-11-15T12:20:30;9.70;99.90
14737;DHT22;7459;53.590;10.062;2022-11-15T12:23:11;9.70;99.90
14737;DHT22;7459;53.590;10.062;2022-11-15T12:25:45;9.70;99.90
14737;DHT22;7459;53.590;10.062;2022-11-15T12:31:24;9.80;99.90
14737;DHT22;7459;53.590;10.062;2022-11-15T12:33:56;9.80;99.90
14737;DHT22;7459;53.590;10.062;2022-11-15T12:38:57;9.90;99.90
14737;DHT22;7459;53.590;10.062;2022-11-15T12:41:29;9.90;99.90
14737;DHT22;7459;53.590;10.062;2022-11-15T12:43:59;10.00;99.90
14737;DHT22;7459;53.590;10.062;2022-11-15T12:48:59;10.00;99.90
14737;DHT22;7459;53.590;10.062;2022-11-15T12:59:53;10.20;99.90
14737;DHT22;7459;53.590;10.062;2022-11-15T13:07:57;10.30;99.90
14737;DHT22;7459;53.590;10.062;2022-11-15T13:12:54;10.30;99.90
14737;DHT22;7459;53.590;10.062;2022-11-15T13:17:48;10.30;99.90
14737;DHT22;7459;53.590;10.062;2022-11-15T13:20:29;10.30;99.90
14737;DHT22;7459;53.590;10.062;2022-11-15T13:23:02;10.30;99.90
14737;DHT22;7459;53.590;10.062;2022-11-15T13:30:41;10.40;99.90
14737;DHT22;7459;53.590;10.062;2022-11-15T13:33:37;10.40;99.90
14737;DHT22;7459;53.590;10.062;2022-11-15T13:36:22;10.40;99.90
14737;DHT22;7459;53.590;10.062;2022-11-15T13:41:36;10.40;99.90
14737;DHT22;7459;53.590;10.062;2022-11-15T13:44:37;10.40;99.90
14737;DHT22;7459;53.590;10.062;2022-11-15T13:47:21;10.40;99.90
14737;DHT22;7459;53.590;10.062;2022-11-15T13:49:46;10.40;99.90
14737;DHT22;7459;53.590;10.062;2022-11-15T13:52:15;10.40;99.90
14737;DHT22;7459;53.590;10.062;2022-11-15T13:57:29;10.50;99.90
14737;DHT22;7459;53.590;10.062;2022-11-15T14:00:02;10.50;99.90
14737;DHT22;7459;53.590;10.062;2022-11-15T14:02:32;10.60;99.90
14737;DHT22;7459;53.590;10.062;2022-11-15T14:05:29;10.60;99.90
14737;DHT22;7459;53.590;10.062;2022-11-15T14:08:01;10.70;99.90
14737;DHT22;7459;53.590;10.062;2022-11-15T14:10:35;10.70;99.90
14737;DHT22;7459;53.590;10.062;2022-11-15T14:13:11;10.70;99.90
14737;DHT22;7459;53.590;10.062;2022-11-15T14:15:53;10.70;99.90
14737;DHT22;7459;53.590;10.062;2022-11-15T14:18:41;10.80;99.90
14737;DHT22;7459;53.590;10.062;2022-11-15T14:21:11;10.80;99.90
14737;DHT22;7459;53.590;10.062;2022-11-15T14:23:37;10.80;99.90
14737;DHT22;7459;53.590;10.062;2022-11-15T14:26:03;10.80;99.90
14737;DHT22;7459;53.590;10.062;2022-11-15T14:28:32;10.80;99.90
14737;DHT22;7459;53.590;10.062;2022-11-15T14:31:01;10.80;99.90
14737;DHT22;7459;53.590;10.062;2022-11-15T14:33:34;10.80;99.90
14737;DHT22;7459;53.590;10.062;2022-11-15T14:38:37;10.70;99.90
14737;DHT22;7459;53.590;10.062;2022-11-15T14:41:03;10.70;99.90
14737;DHT22;7459;53.590;10.062;2022-11-15T14:43:28;10.70;99.90
14737;DHT22;7459;53.590;10.062;2022-11-15T14:45:54;10.70;99.90
14737;DHT22;7459;53.590;10.062;2022-11-15T14:48:20;10.70;99.90
14737;DHT22;7459;53.590;10.062;2022-11-15T14:50:47;10.70;99.90
14737;DHT22;7459;53.590;10.062;2022-11-15T14:53:15;10.70;99.90
14737;DHT22;7459;53.590;10.062;2022-11-15T14:55:43;10.70;99.90
14737;DHT22;7459;53.590;10.062;2022-11-15T14:58:09;10.60;99.90
14737;DHT22;7459;53.590;10.062;2022-11-15T15:00:37;10.60;99.90
14737;DHT22;7459;53.590;10.062;2022-11-15T15:03:04;10.60;99.90
14737;DHT22;7459;53.590;10.062;2022-11-15T15:05:33;10.60;99.90
14737;DHT22;7459;53.590;10.062;2022-11-15T15:08:01;10.60;99.90
14737;DHT22;7459;53.590;10.062;2022-11-15T15:10:35;10.50;99.90
14737;DHT22;7459;53.590;10.062;2022-11-15T15:13:03;10.50;99.90
14737;DHT22;7459;53.590;10.062;2022-11-15T15:15:34;10.50;99.90
14737;DHT22;7459;53.590;10.062;2022-11-15T15:18:01;10.40;99.90
14737;DHT22;7459;53.590;10.062;2022-11-15T15:20:28;10.40;99.90
14737;DHT22;7459;53.590;10.062;2022-11-15T15:22:54;10.40;99.90
14737;DHT22;7459;53.590;10.062;2022-11-15T15:25:33;10.40;99.90
14737;DHT22;7459;53.590;10.062;2022-11-15T15:28:00;10.30;99.90
14737;DHT22;7459;53.590;10.062;2022-11-15T15:30:28;10.30;99.90
14737;DHT22;7459;53.590;10.062;2022-11-15T15:32:55;10.30;99.90
14737;DHT22;7459;53.590;10.062;2022-11-15T15:35:22;10.30;99.90
14737;DHT22;7459;53.590;10.062;2022-11-15T15:37:54;10.20;99.90
14737;DHT22;7459;53.590;10.062;2022-11-15T15:40:21;10.20;99.90
14737;DHT22;7459;53.590;10.062;2022-11-15T15:42:48;10.20;99.90
14737;DHT22;7459;53.590;10.062;2022-11-15T15:45:15;10.20;99.90
14737;DHT22;7459;53.590;10.062;2022-11-15T15:47:42;10.20;99.90
14737;DHT22;7459;53.590;10.062;2022-11-15T15:52:51;10.10;99.90
14737;DHT22;7459;53.590;10.062;2022-11-15T15:55:18;10.10;99.90
14737;DHT22;7459;53.590;10.062;2022-11-15T15:57:44;10.10;99.90
14737;DHT22;7459;53.590;10.062;2022-11-15T16:00:11;10.00;99.90
14737;DHT22;7459;53.590;10.062;2022-11-15T16:02:38;10.00;99.90
14737;DHT22;7459;53.590;10.062;2022-11-15T16:05:05;10.00;99.90
14737;DHT22;7459;53.590;10.062;2022-11-15T16:07:31;10.00;99.90
14737;DHT22;7459;53.590;10.062;2022-11-15T16:09:57;9.90;99.90
14737;DHT22;7459;53.590;10.062;2022-11-15T16:12:35;9.90;99.90
14737;DHT22;7459;53.590;10.062;2022-11-15T16:15:01;9.90;99.90
14737;DHT22;7459;53.590;10.062;2022-11-15T16:17:32;9.90;99.90
14737;DHT22;7459;53.590;10.062;2022-11-15T16:20:00;9.90;99.90
14737;DHT22;7459;53.590;10.062;2022-11-15T16:22:26;9.90;99.90
14737;DHT22;7459;53.590;10.062;2022-11-15T16:24:54;9.90;99.90
14737;DHT22;7459;53.590;10.062;2022-11-15T16:27:21;9.90;99.90
14737;DHT22;7459;53.590;10.062;2022-11-15T16:29:47;9.90;99.90
14737;DHT22;7459;53.590;10.062;2022-11-15T16:32:14;9.90;99.90
14737;DHT22;7459;53.590;10.062;2022-11-15T16:34:39;9.90;99.90
14737;DHT22;7459;53.590;10.062;2022-11-15T16:37:08;9.90;99.90
14737;DHT22;7459;53.590;10.062;2022-11-15T16:39:45;9.90;99.90
14737;DHT22;7459;53.590;10.062;2022-11-15T16:42:11;9.90;99.90
14737;DHT22;7459;53.590;10.062;2022-11-15T16:44:36;9.90;99.90
14737;DHT22;7459;53.590;10.062;2022-11-15T16:47:02;9.90;99.90
14737;DHT22;7459;53.590;10.062;2022-11-15T16:49:28;9.90;99.90
14737;DHT22;7459;53.590;10.062;2022-11-15T16:51:54;9.90;99.90
14737;DHT22;7459;53.590;10.062;2022-11-15T16:54:19;9.90;99.90
14737;DHT22;7459;53.590;10.062;2022-11-15T16:56:45;9.90;99.90
14737;DHT22;7459;53.590;10.062;2022-11-15T16:59:15;9.90;99.90
14737;DHT22;7459;53.590;10.062;2022-11-15T17:01:42;9.90;99.90
14737;DHT22;7459;53.590;10.062;2022-11-15T17:04:15;9.90;99.90
14737;DHT22;7459;53.590;10.062;2022-11-15T17:06:44;9.90;99.90
14737;DHT22;7459;53.590;10.062;2022-11-15T17:09:16;9.90;99.90
14737;DHT22;7459;53.590;10.062;2022-11-15T17:11:44;9.90;99.90
14737;DHT22;7459;53.590;10.062;2022-11-15T17:14:10;9.90;99.90
14737;DHT22;7459;53.590;10.062;2022-11-15T17:16:37;9.90;99.90
14737;DHT22;7459;53.590;10.062;2022-11-15T17:19:10;9.80;99.90
14737;DHT22;7459;53.590;10.062;2022-11-15T17:21:41;9.90;99.90
14737;DHT22;7459;53.590;10.062;2022-11-15T17:24:07;9.80;99.90
14737;DHT22;7459;53.590;10.062;2022-11-15T17:26:32;9.80;99.90
14737;DHT22;7459;53.590;10.062;2022-11-15T17:28:58;9.80;99.90
14737;DHT22;7459;53.590;10.062;2022-11-15T17:31:26;9.80;99.90
14737;DHT22;7459;53.590;10.062;2022-11-15T17:33:52;9.80;99.90
14737;DHT22;7459;53.590;10.062;2022-11-15T17:36:18;9.80;99.90
14737;DHT22;7459;53.590;10.062;2022-11-15T17:38:44;9.80;99.90
14737;DHT22;7459;53.590;10.062;2022-11-15T17:41:15;9.80;99.90
14737;DHT22;7459;53.590;10.062;2022-11-15T17:43:41;9.80;99.90
14737;DHT22;7459;53.590;10.062;2022-11-15T17:46:11;9.80;99.90
14737;DHT22;7459;53.590;10.062;2022-11-15T17:48:38;9.80;99.90
14737;DHT22;7459;53.590;10.062;2022-11-15T17:51:06;9.80;99.90